createdAt,value
2022-08-05T00:02:50.685Z,44.80
2022-08-05T00:06:35.855Z,44.80
2022-08-05T00:10:18.507Z,44.90
2022-08-05T00:14:00.303Z,45.10
2022-08-05T00:17:44.024Z,45.20
2022-08-05T00:21:30.647Z,45.30
2022-08-05T00:25:12.908Z,45.40
2022-08-05T00:28:54.779Z,45.40
2022-08-05T00:32:36.660Z,45.40
2022-08-05T00:37:11.268Z,45.40
2022-08-05T00:40:27.910Z,45.40
2022-08-05T00:44:10.507Z,45.50
2022-08-05T00:47:56.234Z,45.60
2022-08-05T00:51:51.400Z,45.60
2022-08-05T00:55:42.915Z,45.80
2022-08-05T00:59:25.665Z,45.80
2022-08-05T01:03:22.841Z,46.00
2022-08-05T01:07:05.471Z,46.10
2022-08-05T01:10:59.444Z,46.20
2022-08-05T01:14:44.996Z,46.70
2022-08-05T01:18:32.828Z,46.20
2022-08-05T01:22:35.561Z,46.50
2022-08-05T01:26:27.488Z,47.10
2022-08-05T01:30:17.743Z,46.50
2022-08-05T01:34:09.900Z,46.60
2022-08-05T01:37:55.175Z,46.90
2022-08-05T01:41:37.871Z,46.90
2022-08-05T01:45:27.798Z,46.90
2022-08-05T01:49:24.906Z,47.00
2022-08-05T01:53:16.886Z,47.50
2022-08-05T01:58:11.775Z,47.80
2022-08-05T02:01:32.105Z,47.70
2022-08-05T02:05:28.716Z,47.30
2022-08-05T02:09:10.781Z,47.40
2022-08-05T02:13:16.401Z,47.50
2022-08-05T02:17:05.511Z,48.00
2022-08-05T02:20:59.053Z,48.00
2022-08-05T02:24:44.723Z,48.50
2022-08-05T02:28:38.411Z,47.90
2022-08-05T02:32:29.450Z,48.10
2022-08-05T02:36:17.885Z,48.10
2022-08-05T02:40:02.429Z,48.30
2022-08-05T02:44:06.468Z,48.30
2022-08-05T02:48:07.567Z,48.30
2022-08-05T02:52:02.744Z,48.50
2022-08-05T02:55:59.584Z,48.70
2022-08-05T02:59:50.500Z,49.00
2022-08-05T03:04:02.782Z,49.20
2022-08-05T03:08:01.753Z,49.10
2022-08-05T03:11:57.349Z,49.20
2022-08-05T03:15:43.441Z,49.30
2022-08-05T03:19:34.066Z,49.40
2022-08-05T03:23:17.990Z,49.40
2022-08-05T03:27:00.380Z,49.40
2022-08-05T03:30:42.889Z,49.40
2022-08-05T03:34:27.180Z,49.40
2022-08-05T03:38:11.855Z,49.50
2022-08-05T03:41:53.686Z,49.70
2022-08-05T03:45:55.176Z,49.70
2022-08-05T03:49:51.474Z,49.80
2022-08-05T03:55:53.701Z,49.70
2022-08-05T03:58:00.605Z,50.90
2022-08-05T04:01:46.752Z,49.80
2022-08-05T04:05:34.634Z,50.00
2022-08-05T04:09:20.220Z,50.00
2022-08-05T04:13:08.360Z,50.00
2022-08-05T04:16:50.602Z,50.20
2022-08-05T04:20:34.989Z,50.20
2022-08-05T04:24:19.515Z,50.30
2022-08-05T04:28:12.711Z,50.20
2022-08-05T04:31:56.842Z,50.30
2022-08-05T04:36:16.375Z,50.40
2022-08-05T04:39:40.784Z,50.70
2022-08-05T04:43:22.621Z,51.00
2022-08-05T04:47:09.420Z,51.20
2022-08-05T04:51:02.949Z,51.40
2022-08-05T04:54:51.747Z,51.50
2022-08-05T04:58:34.116Z,51.50
2022-08-05T05:02:37.403Z,51.60
2022-08-05T05:06:37.051Z,51.70
2022-08-05T05:10:21.602Z,51.80
2022-08-05T05:14:06.388Z,51.80
2022-08-05T05:17:56.898Z,51.80
2022-08-05T05:21:39.309Z,51.90
2022-08-05T05:25:21.250Z,51.80
2022-08-05T05:29:15.090Z,51.90
2022-08-05T05:33:00.710Z,51.90
2022-08-05T05:36:45.697Z,52.00
2022-08-05T05:40:32.162Z,52.10
2022-08-05T05:44:35.761Z,52.20
2022-08-05T05:48:15.947Z,52.40
2022-08-05T05:51:58.041Z,52.30
2022-08-05T05:55:52.141Z,52.30
2022-08-05T05:59:41.694Z,52.40
2022-08-05T06:03:40.064Z,52.50
2022-08-05T06:07:41.983Z,52.60
2022-08-05T06:11:24.199Z,52.70
2022-08-05T06:15:08.067Z,52.80
2022-08-05T06:18:50.182Z,52.80
2022-08-05T06:22:35.602Z,52.90
2022-08-05T06:26:24.128Z,52.90
2022-08-05T06:30:17.893Z,53.00
2022-08-05T06:34:07.838Z,53.00
2022-08-05T06:37:56.424Z,53.10
2022-08-05T06:41:40.580Z,53.20
2022-08-05T06:46:02.844Z,53.30
2022-08-05T06:50:01.832Z,53.40
2022-08-05T06:53:29.127Z,53.60
2022-08-05T06:57:57.653Z,53.70
2022-08-05T07:01:16.801Z,53.70
2022-08-05T07:05:02.982Z,53.80
2022-08-05T07:08:56.365Z,54.00
2022-08-05T07:13:03.963Z,54.10
2022-08-05T07:18:01.239Z,54.20
2022-08-05T07:20:53.215Z,54.10
2022-08-05T07:24:43.909Z,54.00
2022-08-05T07:28:34.685Z,54.10
2022-08-05T07:32:16.521Z,54.10
2022-08-05T07:36:19.631Z,54.00
2022-08-05T07:40:04.074Z,54.00
2022-08-05T07:44:05.182Z,53.80
2022-08-05T07:47:47.181Z,53.70
2022-08-05T07:51:40.219Z,53.60
2022-08-05T07:55:44.220Z,53.50
2022-08-05T07:59:38.159Z,53.40
2022-08-05T08:03:22.539Z,53.30
2022-08-05T08:07:05.581Z,53.20
2022-08-05T08:10:49.346Z,53.10
2022-08-05T08:14:31.218Z,53.00
2022-08-05T08:18:13.932Z,52.90
2022-08-05T08:21:56.414Z,52.70
2022-08-05T08:26:02.426Z,52.60
2022-08-05T08:30:05.171Z,52.60
2022-08-05T08:33:42.986Z,52.50
2022-08-05T08:37:27.918Z,52.20
2022-08-05T08:41:14.075Z,52.10
2022-08-05T08:45:18.027Z,51.80
2022-08-05T08:49:09.615Z,51.50
2022-08-05T08:53:08.142Z,51.30
2022-08-05T08:56:54.228Z,51.10
2022-08-05T09:00:41.602Z,50.90
2022-08-05T09:04:23.859Z,50.70
2022-08-05T09:08:12.697Z,50.70
2022-08-05T09:11:59.328Z,50.50
2022-08-05T09:15:47.895Z,50.20
2022-08-05T09:19:36.409Z,49.90
2022-08-05T09:23:43.699Z,49.40
2022-08-05T09:28:03.758Z,49.00
2022-08-05T09:32:46.024Z,48.40
2022-08-05T09:36:16.497Z,48.90
2022-08-05T09:39:58.700Z,48.00
2022-08-05T09:43:42.226Z,48.40
2022-08-05T09:47:48.480Z,47.90
2022-08-05T09:51:40.031Z,47.50
2022-08-05T09:55:57.168Z,46.90
2022-08-05T09:59:27.558Z,47.40
2022-08-05T10:03:10.909Z,47.40
2022-08-05T10:06:59.361Z,47.20
2022-08-05T10:10:44.370Z,46.90
2022-08-05T10:14:32.217Z,46.90
2022-08-05T10:18:22.913Z,46.50
2022-08-05T10:22:05.005Z,46.30
2022-08-05T10:25:51.162Z,46.40
2022-08-05T10:30:06.967Z,46.30
2022-08-05T10:33:39.618Z,46.00
2022-08-05T10:37:22.410Z,45.80
2022-08-05T10:41:12.426Z,45.80
2022-08-05T10:44:57.662Z,45.70
2022-08-05T10:48:56.481Z,45.50
2022-08-05T10:52:52.284Z,45.20
2022-08-05T10:56:57.739Z,44.70
2022-08-05T11:00:47.123Z,44.20
2022-08-05T11:04:31.004Z,43.80
2022-08-05T11:08:36.575Z,44.20
2022-08-05T11:12:38.250Z,43.90
2022-08-05T11:16:47.979Z,42.80
2022-08-05T11:20:47.391Z,43.40
2022-08-05T11:24:31.088Z,42.60
2022-08-05T11:28:17.082Z,43.40
2022-08-05T11:32:27.398Z,43.70
2022-08-05T11:36:10.537Z,43.50
2022-08-05T11:40:00.788Z,43.80
2022-08-05T11:44:06.693Z,44.00
2022-08-05T11:47:50.582Z,43.70
2022-08-05T11:51:44.486Z,44.00
2022-08-05T11:55:31.832Z,43.60
2022-08-05T11:59:21.343Z,43.60
2022-08-05T12:03:24.073Z,43.40
2022-08-05T12:07:15.662Z,43.00
2022-08-05T12:11:04.109Z,43.60
2022-08-05T12:14:48.256Z,43.80
2022-08-05T12:18:38.729Z,43.70
2022-08-05T12:22:26.234Z,42.20
2022-08-05T12:26:08.797Z,42.50
2022-08-05T12:30:03.374Z,42.40
2022-08-05T12:33:45.609Z,41.20
2022-08-05T12:37:29.969Z,41.40
2022-08-05T12:41:16.121Z,41.20
2022-08-05T12:45:08.713Z,40.50
2022-08-05T12:49:18.972Z,40.00
2022-08-05T12:53:01.050Z,35.30
2022-08-05T12:56:43.277Z,40.00
2022-08-05T13:02:02.596Z,39.90
2022-08-05T13:04:34.781Z,39.20
2022-08-05T13:08:23.840Z,39.10
2022-08-05T13:12:16.164Z,39.10
2022-08-05T13:15:58.979Z,39.00
2022-08-05T13:19:52.932Z,39.00
2022-08-05T13:23:34.892Z,39.20
2022-08-05T13:27:50.518Z,38.90
2022-08-05T13:32:03.429Z,36.70
2022-08-05T13:35:47.504Z,38.00
2022-08-05T13:40:15.012Z,37.80
2022-08-05T13:43:44.162Z,37.90
2022-08-05T13:48:08.628Z,37.40
2022-08-05T13:51:45.764Z,36.90
2022-08-05T13:55:40.918Z,36.40
2022-08-05T13:59:27.161Z,36.40
2022-08-05T14:03:09.393Z,36.30
2022-08-05T14:06:58.703Z,36.10
2022-08-05T14:10:53.093Z,35.70
2022-08-05T14:14:41.672Z,36.10
2022-08-05T14:18:24.121Z,36.40
2022-08-05T14:22:09.439Z,36.60
2022-08-05T14:25:58.037Z,36.70
2022-08-05T14:29:41.172Z,36.70
2022-08-05T14:33:24.238Z,37.40
2022-08-05T14:37:06.434Z,37.10
2022-08-05T14:40:48.439Z,36.90
2022-08-05T14:44:32.531Z,36.80
2022-08-05T14:48:32.285Z,36.60
2022-08-05T14:52:25.848Z,36.30
2022-08-05T14:56:22.587Z,36.30
2022-08-05T15:00:05.031Z,36.70
2022-08-05T15:03:48.654Z,36.60
2022-08-05T15:08:06.238Z,37.40
2022-08-05T15:11:52.674Z,37.10
2022-08-05T15:15:55.917Z,36.90
2022-08-05T15:19:37.307Z,37.10
2022-08-05T15:23:20.937Z,36.20
2022-08-05T15:27:03.422Z,35.90
2022-08-05T15:30:46.459Z,36.20
2022-08-05T15:34:33.265Z,36.50
2022-08-05T15:38:36.020Z,36.10
2022-08-05T15:42:54.400Z,35.60
2022-08-05T15:46:24.094Z,35.70
2022-08-05T15:50:08.053Z,35.20
2022-08-05T15:53:51.903Z,35.30
2022-08-05T15:57:34.781Z,34.90
2022-08-05T16:01:18.713Z,34.50
2022-08-05T16:05:02.168Z,34.00
2022-08-05T16:08:43.950Z,34.10
2022-08-05T16:12:26.662Z,33.80
2022-08-05T16:16:10.714Z,33.60
2022-08-05T16:20:05.297Z,33.10
2022-08-05T16:23:55.411Z,32.90
2022-08-05T16:28:00.987Z,33.00
2022-08-05T16:31:56.776Z,32.60
2022-08-05T16:35:42.315Z,32.40
2022-08-05T16:40:06.013Z,32.60
2022-08-05T16:43:33.788Z,32.70
2022-08-05T16:47:28.550Z,32.90
2022-08-05T16:51:17.530Z,34.00
2022-08-05T16:54:59.876Z,34.10
2022-08-05T16:58:42.518Z,33.70
2022-08-05T17:02:24.731Z,33.20
2022-08-05T17:06:10.069Z,32.40
2022-08-05T17:09:57.709Z,31.80
2022-08-05T17:13:42.153Z,31.80
2022-08-05T17:17:24.177Z,32.10
2022-08-05T17:21:24.174Z,31.90
2022-08-05T17:25:22.111Z,31.60
2022-08-05T17:29:10.028Z,31.40
2022-08-05T17:32:52.515Z,31.20
2022-08-05T17:36:40.072Z,31.10
2022-08-05T17:40:22.891Z,31.10
2022-08-05T17:44:04.818Z,30.80
2022-08-05T17:47:51.353Z,30.70
2022-08-05T17:51:40.296Z,30.80
2022-08-05T17:55:27.229Z,30.90
2022-08-05T17:59:20.975Z,30.50
2022-08-05T18:03:04.550Z,30.70
2022-08-05T18:06:50.077Z,30.90
2022-08-05T18:10:33.487Z,31.00
2022-08-05T18:14:20.307Z,31.10
2022-08-05T18:18:05.763Z,30.90
2022-08-05T18:22:07.605Z,30.80
2022-08-05T18:25:57.469Z,30.80
2022-08-05T18:29:41.531Z,30.70
2022-08-05T18:33:24.190Z,30.50
2022-08-05T18:37:12.561Z,30.30
2022-08-05T18:41:56.854Z,30.20
2022-08-05T18:44:56.755Z,30.30
2022-08-05T18:48:41.368Z,30.60
2022-08-05T18:52:33.566Z,31.00
2022-08-05T18:56:17.672Z,31.20
2022-08-05T19:00:11.792Z,31.40
2022-08-05T19:04:01.921Z,31.60
2022-08-05T19:07:49.817Z,32.10
2022-08-05T19:11:59.569Z,32.70
2022-08-05T19:15:57.205Z,33.20
2022-08-05T19:19:37.259Z,33.60
2022-08-05T19:24:06.959Z,33.90
2022-08-05T19:27:33.705Z,34.20
2022-08-05T19:31:19.287Z,34.50
2022-08-05T19:35:06.417Z,34.70
2022-08-05T19:38:48.562Z,35.10
2022-08-05T19:42:35.780Z,35.00
2022-08-05T19:46:30.755Z,35.30
2022-08-05T19:50:12.958Z,36.10
2022-08-05T19:54:03.501Z,35.80
2022-08-05T19:58:14.207Z,36.10
2022-08-05T20:01:49.088Z,36.40
2022-08-05T20:05:42.908Z,36.50
2022-08-05T20:09:25.438Z,36.80
2022-08-05T20:13:07.317Z,37.00
2022-08-05T20:16:51.478Z,37.20
2022-08-05T20:20:33.274Z,37.40
2022-08-05T20:24:16.114Z,37.50
2022-08-05T20:27:57.995Z,37.70
2022-08-05T20:31:50.422Z,37.90
2022-08-05T20:35:40.673Z,38.10
2022-08-05T20:39:36.622Z,38.30
2022-08-05T20:43:57.949Z,38.40
2022-08-05T20:47:20.706Z,38.50
2022-08-05T20:51:15.632Z,38.70
2022-08-05T20:55:16.102Z,38.90
2022-08-05T20:59:00.129Z,39.00
2022-08-05T21:03:00.040Z,39.20
2022-08-05T21:06:45.665Z,39.30
2022-08-05T21:10:27.970Z,39.30
2022-08-05T21:14:10.246Z,39.50
2022-08-05T21:17:54.189Z,39.60
2022-08-05T21:21:43.860Z,39.70
2022-08-05T21:25:33.691Z,39.80
2022-08-05T21:29:16.612Z,40.00
2022-08-05T21:32:58.787Z,40.30
2022-08-05T21:36:42.412Z,40.60
2022-08-05T21:40:28.576Z,40.80
2022-08-05T21:44:12.297Z,40.90
2022-08-05T21:47:58.114Z,41.00
2022-08-05T21:52:15.837Z,41.10
2022-08-05T21:56:01.278Z,41.30
2022-08-05T22:00:02.009Z,41.40
2022-08-05T22:03:53.073Z,41.60
2022-08-05T22:07:39.940Z,41.90
2022-08-05T22:11:37.205Z,42.00
2022-08-05T22:15:56.442Z,42.30
2022-08-05T22:20:01.317Z,42.40
2022-08-05T22:24:01.394Z,42.50
2022-08-05T22:28:08.744Z,42.60
2022-08-05T22:31:45.937Z,42.70
2022-08-05T22:35:48.446Z,42.60
2022-08-05T22:39:33.714Z,42.80
2022-08-05T22:43:15.919Z,43.00
2022-08-05T22:47:29.199Z,43.20
2022-08-05T22:51:22.469Z,43.50
2022-08-05T22:55:19.257Z,43.60
2022-08-05T22:59:03.291Z,43.80
2022-08-05T23:03:04.518Z,43.90
2022-08-05T23:06:47.872Z,44.10
2022-08-05T23:10:29.915Z,44.30
2022-08-05T23:14:12.976Z,44.40
2022-08-05T23:18:01.700Z,44.60
2022-08-05T23:21:48.352Z,44.70
2022-08-05T23:25:54.898Z,44.80
2022-08-05T23:29:34.492Z,44.80
2022-08-05T23:33:25.913Z,45.00
2022-08-05T23:37:18.577Z,45.00
2022-08-05T23:41:00.390Z,45.10
2022-08-05T23:44:44.226Z,45.20
2022-08-05T23:48:26.463Z,45.30
2022-08-05T23:52:27.606Z,45.30
2022-08-05T23:56:09.641Z,45.30
